createdAt,value
2019-03-29T00:00:34.426Z,32.88
2019-03-29T00:03:04.493Z,32.45
2019-03-29T00:05:34.712Z,34.78
2019-03-29T00:08:04.874Z,31.95
2019-03-29T00:10:35.202Z,33.75
2019-03-29T00:13:05.321Z,32.17
2019-03-29T00:15:35.533Z,31.85
2019-03-29T00:18:05.549Z,31.77
2019-03-29T00:20:35.572Z,33.33
2019-03-29T00:23:05.733Z,31.82
2019-03-29T00:25:35.729Z,35.73
2019-03-29T00:28:05.759Z,34.00
2019-03-29T00:30:35.789Z,32.00
2019-03-29T00:33:05.836Z,31.30
2019-03-29T00:35:35.959Z,30.50
2019-03-29T00:38:06.031Z,33.90
2019-03-29T00:40:36.133Z,32.47
2019-03-29T00:43:06.236Z,32.65
2019-03-29T00:45:36.485Z,31.10
2019-03-29T00:48:06.620Z,33.83
2019-03-29T00:50:36.669Z,33.10
2019-03-29T00:53:06.648Z,32.05
2019-03-29T00:55:36.749Z,33.02
2019-03-29T00:58:06.725Z,32.23
2019-03-29T01:00:36.819Z,31.87
2019-03-29T01:03:06.907Z,32.17
2019-03-29T01:05:37.033Z,33.38
2019-03-29T01:08:10.031Z,31.55
2019-03-29T01:10:39.005Z,32.30
2019-03-29T01:13:09.024Z,36.77
2019-03-29T01:15:39.154Z,35.75
2019-03-29T01:18:09.123Z,33.55
2019-03-29T01:20:39.294Z,31.70
2019-03-29T01:23:09.377Z,31.97
2019-03-29T01:25:39.385Z,33.33
2019-03-29T01:28:11.891Z,33.98
2019-03-29T01:30:42.090Z,33.73
2019-03-29T01:33:12.176Z,31.15
2019-03-29T01:35:42.363Z,30.90
2019-03-29T01:38:21.751Z,30.52
2019-03-29T01:40:44.029Z,32.45
2019-03-29T01:43:14.018Z,32.08
2019-03-29T01:45:44.190Z,29.35
2019-03-29T01:48:14.314Z,31.82
2019-03-29T01:50:44.542Z,30.43
2019-03-29T01:53:14.618Z,31.48
2019-03-29T01:55:44.628Z,32.73
2019-03-29T01:58:15.118Z,32.15
2019-03-29T02:00:45.204Z,31.87
2019-03-29T02:03:15.225Z,31.90
2019-03-29T02:05:45.234Z,31.52
2019-03-29T02:08:15.360Z,30.70
2019-03-29T02:10:45.356Z,29.30
2019-03-29T02:13:15.412Z,30.72
2019-03-29T02:15:45.434Z,28.98
2019-03-29T02:18:15.364Z,28.30
2019-03-29T02:20:45.567Z,29.30
2019-03-29T02:23:15.694Z,29.75
2019-03-29T02:25:45.899Z,28.67
2019-03-29T02:28:16.105Z,28.38
2019-03-29T02:30:46.148Z,28.80
2019-03-29T02:33:16.285Z,27.75
2019-03-29T02:35:46.594Z,28.38
2019-03-29T02:38:16.689Z,26.10
2019-03-29T02:40:46.815Z,27.95
2019-03-29T02:43:17.202Z,27.00
2019-03-29T02:45:47.306Z,26.45
2019-03-29T02:48:17.456Z,26.95
2019-03-29T02:50:47.873Z,28.27
2019-03-29T02:53:17.924Z,27.67
2019-03-29T02:55:47.991Z,27.45
2019-03-29T02:58:18.055Z,26.73
2019-03-29T03:00:48.381Z,26.60
2019-03-29T03:03:18.665Z,28.47
2019-03-29T03:05:48.682Z,37.55
2019-03-29T03:08:18.756Z,29.55
2019-03-29T03:10:48.916Z,31.15
2019-03-29T03:13:19.436Z,31.53
2019-03-29T03:15:49.455Z,31.52
2019-03-29T03:18:19.605Z,31.45
2019-03-29T03:20:49.598Z,29.80
2019-03-29T03:23:19.895Z,30.77
2019-03-29T03:25:49.983Z,30.40
2019-03-29T03:28:20.181Z,31.42
2019-03-29T03:30:50.425Z,35.10
2019-03-29T03:33:20.679Z,31.97
2019-03-29T03:35:50.728Z,31.97
2019-03-29T03:38:20.997Z,33.95
2019-03-29T03:40:51.186Z,32.15
2019-03-29T03:43:21.228Z,32.45
2019-03-29T03:45:51.189Z,33.95
2019-03-29T03:48:21.222Z,32.90
2019-03-29T03:50:52.154Z,32.45
2019-03-29T03:53:22.232Z,31.70
2019-03-29T03:55:53.790Z,31.47
2019-03-29T03:58:24.512Z,33.10
2019-03-29T04:00:58.918Z,34.90
2019-03-29T04:03:29.172Z,33.75
2019-03-29T04:05:59.482Z,38.40
2019-03-29T04:08:29.583Z,37.67
2019-03-29T04:10:59.757Z,37.10
2019-03-29T04:13:29.833Z,39.85
2019-03-29T04:15:59.877Z,38.97
2019-03-29T04:18:29.969Z,38.35
2019-03-29T04:21:00.136Z,37.45
2019-03-29T04:23:30.341Z,38.80
2019-03-29T04:26:00.417Z,42.80
2019-03-29T04:28:30.473Z,40.03
2019-03-29T04:31:00.770Z,39.80
2019-03-29T04:33:30.777Z,40.65
2019-03-29T04:36:00.774Z,38.75
2019-03-29T04:38:31.046Z,37.88
2019-03-29T04:41:01.155Z,43.30
2019-03-29T04:43:31.241Z,38.50
2019-03-29T04:46:01.235Z,37.25
2019-03-29T04:48:31.366Z,36.33
2019-03-29T04:51:01.590Z,38.13
2019-03-29T04:53:31.926Z,37.80
2019-03-29T04:56:02.055Z,37.23
2019-03-29T04:58:32.256Z,41.00
2019-03-29T05:01:02.506Z,41.28
2019-03-29T05:03:32.590Z,37.47
2019-03-29T05:06:02.632Z,36.45
2019-03-29T05:08:32.668Z,35.68
2019-03-29T05:11:02.681Z,36.08
2019-03-29T05:13:32.712Z,34.50
2019-03-29T05:29:58.846Z,31.87
2019-03-29T05:32:29.041Z,30.53
2019-03-29T05:34:59.209Z,32.17
2019-03-29T05:37:29.272Z,30.85
2019-03-29T05:39:59.280Z,31.85
2019-03-29T05:42:29.440Z,32.27
2019-03-29T05:44:59.639Z,29.20
2019-03-29T05:47:30.196Z,29.45
2019-03-29T05:49:59.328Z,28.95
2019-03-29T05:52:29.450Z,27.55
2019-03-29T05:54:59.477Z,28.07
2019-03-29T05:57:29.458Z,27.37
2019-03-29T05:59:59.815Z,27.05
2019-03-29T06:02:29.922Z,26.60
2019-03-29T06:04:59.929Z,25.62
2019-03-29T06:07:29.242Z,24.98
2019-03-29T06:09:59.282Z,24.90
2019-03-29T06:12:28.437Z,24.55
2019-03-29T06:14:58.481Z,25.40
2019-03-29T06:17:28.577Z,24.07
2019-03-29T06:19:57.809Z,25.10
2019-03-29T06:22:27.878Z,23.80
2019-03-29T06:24:57.921Z,23.67
2019-03-29T06:27:28.325Z,24.43
2019-03-29T06:29:58.600Z,24.12
2019-03-29T06:32:27.866Z,23.65
2019-03-29T06:34:57.092Z,24.72
2019-03-29T06:37:27.642Z,22.30
2019-03-29T06:39:57.266Z,23.83
2019-03-29T06:42:26.427Z,22.75
2019-03-29T06:44:55.818Z,22.42
2019-03-29T06:47:24.955Z,20.82
2019-03-29T06:49:54.290Z,21.20
2019-03-29T06:52:23.437Z,19.30
2019-03-29T06:54:52.747Z,18.85
2019-03-29T06:57:21.983Z,17.73
2019-03-29T06:59:51.925Z,16.52
2019-03-29T07:02:21.106Z,15.38
2019-03-29T07:04:51.330Z,14.65
2019-03-29T07:07:21.579Z,14.83
2019-03-29T07:09:50.907Z,15.10
2019-03-29T07:12:20.061Z,20.62
2019-03-29T07:14:49.297Z,17.12
2019-03-29T07:17:18.493Z,14.75
2019-03-29T07:19:47.837Z,15.00
2019-03-29T07:22:17.027Z,15.18
2019-03-29T07:24:46.208Z,15.10
2019-03-29T07:27:15.405Z,15.18
2019-03-29T07:29:51.441Z,15.49
2019-03-29T07:32:20.633Z,14.95
2019-03-29T07:34:49.973Z,15.28
2019-03-29T07:37:19.168Z,15.08
2019-03-29T07:39:48.358Z,14.87
2019-03-29T07:42:17.506Z,14.53
2019-03-29T07:44:46.768Z,14.87
2019-03-29T07:47:15.991Z,14.95
2019-03-29T07:49:45.277Z,15.17
2019-03-29T07:52:14.487Z,14.43
2019-03-29T07:54:43.843Z,14.80
2019-03-29T07:57:13.010Z,15.13
2019-03-29T07:59:42.166Z,14.60
2019-03-29T08:02:11.467Z,13.68
2019-03-29T08:04:40.648Z,12.73
2019-03-29T08:07:10.490Z,13.67
2019-03-29T08:09:42.007Z,12.75
2019-03-29T08:12:11.136Z,11.93
2019-03-29T08:14:40.429Z,12.07
2019-03-29T08:17:12.182Z,11.13
2019-03-29T08:19:41.380Z,10.53
2019-03-29T08:22:10.667Z,11.63
2019-03-29T08:24:39.828Z,11.25
2019-03-29T08:27:09.040Z,11.95
2019-03-29T08:29:38.295Z,12.80
2019-03-29T08:32:07.549Z,8.20
2019-03-29T08:34:36.762Z,10.70
2019-03-29T08:37:06.114Z,10.05
2019-03-29T08:39:35.362Z,9.13
2019-03-29T08:42:04.547Z,10.80
2019-03-29T08:44:34.796Z,10.38
2019-03-29T08:47:04.258Z,9.58
2019-03-29T08:49:34.482Z,9.45
2019-03-29T08:52:03.639Z,8.85
2019-03-29T08:54:33.704Z,9.30
2019-03-29T08:57:02.970Z,9.30
2019-03-29T08:59:32.196Z,8.90
2019-03-29T09:02:01.450Z,10.00
2019-03-29T09:04:30.648Z,10.08
2019-03-29T09:06:59.878Z,10.40
2019-03-29T09:09:31.196Z,9.08
2019-03-29T09:12:13.722Z,8.78
2019-03-29T09:14:32.181Z,8.43
2019-03-29T09:17:02.172Z,8.75
2019-03-29T09:19:31.552Z,8.35
2019-03-29T09:22:00.699Z,7.83
2019-03-29T09:24:29.991Z,7.33
2019-03-29T09:26:59.187Z,9.00
2019-03-29T09:29:28.448Z,9.00
2019-03-29T09:31:59.664Z,8.65
2019-03-29T09:34:29.829Z,8.53
2019-03-29T09:37:00.390Z,8.80
2019-03-29T09:39:30.549Z,8.33
2019-03-29T09:42:01.268Z,8.45
2019-03-29T09:44:31.334Z,8.00
2019-03-29T09:47:01.326Z,7.97
2019-03-29T09:49:31.340Z,7.87
2019-03-29T09:52:01.409Z,6.67
2019-03-29T09:54:31.495Z,7.00
2019-03-29T09:57:01.931Z,7.03
2019-03-29T09:59:31.919Z,7.50
2019-03-29T10:02:02.017Z,7.17
2019-03-29T10:04:32.229Z,6.70
2019-03-29T10:07:02.630Z,7.03
2019-03-29T10:09:32.707Z,6.90
2019-03-29T10:12:02.912Z,6.87
2019-03-29T10:14:33.641Z,7.03
2019-03-29T10:17:03.761Z,6.47
2019-03-29T10:19:33.789Z,6.72
2019-03-29T10:22:04.025Z,6.25
2019-03-29T10:24:34.127Z,5.90
2019-03-29T10:27:03.233Z,5.40
2019-03-29T10:29:33.328Z,5.75
2019-03-29T10:32:07.545Z,5.42
2019-03-29T10:34:37.505Z,4.80
2019-03-29T10:37:06.995Z,4.83
2019-03-29T10:39:37.003Z,4.97
2019-03-29T10:42:08.808Z,4.87
2019-03-29T10:44:38.830Z,5.53
2019-03-29T10:47:09.774Z,5.35
2019-03-29T10:49:39.784Z,5.60
2019-03-29T10:52:09.922Z,5.95
2019-03-29T10:54:40.048Z,5.30
2019-03-29T10:57:10.435Z,4.83
2019-03-29T10:59:39.690Z,4.92
2019-03-29T11:02:09.012Z,5.42
2019-03-29T11:04:38.168Z,5.00
2019-03-29T11:07:07.823Z,5.13
2019-03-29T11:09:37.340Z,5.05
2019-03-29T11:12:06.559Z,4.20
2019-03-29T11:14:35.818Z,7.62
2019-03-29T11:17:04.985Z,7.50
2019-03-29T11:19:34.425Z,8.00
2019-03-29T11:22:03.773Z,8.93
2019-03-29T11:24:32.985Z,7.53
2019-03-29T11:27:02.132Z,8.95
2019-03-29T11:29:31.324Z,8.45
2019-03-29T11:32:00.548Z,8.43
2019-03-29T11:34:29.739Z,8.15
2019-03-29T11:36:58.901Z,9.05
2019-03-29T11:39:28.087Z,8.50
2019-03-29T11:41:57.419Z,8.98
2019-03-29T11:44:28.745Z,9.18
2019-03-29T11:46:57.422Z,9.30
2019-03-29T11:49:26.714Z,9.28
2019-03-29T11:51:55.936Z,9.08
2019-03-29T11:54:25.100Z,8.35
2019-03-29T11:56:54.349Z,9.40
2019-03-29T11:59:23.566Z,7.80
2019-03-29T12:01:52.802Z,8.40
2019-03-29T12:04:22.019Z,9.85
2019-03-29T12:06:51.201Z,10.55
2019-03-29T12:09:20.463Z,10.03
2019-03-29T12:11:49.720Z,8.98
2019-03-29T12:14:18.918Z,9.60
2019-03-29T12:16:48.108Z,9.93
2019-03-29T12:19:17.388Z,10.60
2019-03-29T12:21:46.610Z,9.47
2019-03-29T12:24:15.811Z,9.40
2019-03-29T12:26:45.056Z,7.78
2019-03-29T12:29:14.222Z,10.72
2019-03-29T12:31:43.441Z,10.45
2019-03-29T12:34:12.914Z,9.65
2019-03-29T12:36:42.089Z,11.03
2019-03-29T12:39:11.362Z,9.80
2019-03-29T12:41:40.524Z,9.30
2019-03-29T12:44:09.639Z,11.18
2019-03-29T12:46:38.857Z,10.48
2019-03-29T12:49:08.082Z,11.75
2019-03-29T12:51:37.568Z,10.63
2019-03-29T12:54:06.696Z,9.68
2019-03-29T12:56:35.877Z,8.08
2019-03-29T12:59:05.399Z,6.17
2019-03-29T13:01:39.826Z,6.15
2019-03-29T13:04:09.500Z,5.73
2019-03-29T13:06:38.110Z,4.87
2019-03-29T13:09:08.502Z,5.53
2019-03-29T13:11:38.539Z,4.80
2019-03-29T13:14:10.464Z,4.97
2019-03-29T13:16:40.150Z,5.42
2019-03-29T13:19:10.391Z,5.35
2019-03-29T13:21:41.226Z,5.30
2019-03-29T13:24:11.294Z,5.60
2019-03-29T13:26:40.557Z,5.62
2019-03-29T13:29:10.539Z,4.95
2019-03-29T13:31:40.477Z,5.08
2019-03-29T13:34:10.516Z,4.83
2019-03-29T13:36:39.693Z,5.20
2019-03-29T13:39:09.167Z,5.95
2019-03-29T13:41:40.115Z,5.30
2019-03-29T13:44:22.935Z,5.65
2019-03-29T13:46:40.219Z,5.80
2019-03-29T13:52:35.315Z,5.97
2019-03-29T13:55:04.571Z,5.47
2019-03-29T13:57:33.986Z,5.50
2019-03-29T14:00:03.207Z,5.35
2019-03-29T14:02:32.371Z,5.33
2019-03-29T14:05:01.537Z,5.70
2019-03-29T14:07:30.678Z,6.35
2019-03-29T14:10:00.340Z,6.25
2019-03-29T14:12:29.566Z,6.22
2019-03-29T14:15:01.183Z,6.60
2019-03-29T14:17:29.647Z,5.97
2019-03-29T14:19:58.935Z,6.27
2019-03-29T14:22:28.066Z,6.87
2019-03-29T14:24:57.224Z,6.53
2019-03-29T14:27:26.402Z,6.95
2019-03-29T14:30:04.255Z,6.80
2019-03-29T14:32:27.148Z,6.93
2019-03-29T14:34:56.317Z,7.20
2019-03-29T14:37:25.502Z,7.47
2019-03-29T14:39:54.710Z,8.23
2019-03-29T14:42:23.991Z,7.33
2019-03-29T14:44:53.367Z,7.72
2019-03-29T14:47:22.470Z,7.00
2019-03-29T14:49:51.615Z,7.33
2019-03-29T14:52:20.806Z,7.05
2019-03-29T14:54:50.011Z,7.33
2019-03-29T14:57:19.164Z,6.60
2019-03-29T14:59:48.366Z,7.40
2019-03-29T15:02:17.579Z,7.50
2019-03-29T15:04:46.840Z,7.85
2019-03-29T15:07:16.650Z,7.87
2019-03-29T15:09:46.177Z,7.50
2019-03-29T15:12:15.465Z,8.30
2019-03-29T15:14:44.621Z,8.03
2019-03-29T15:17:13.930Z,7.58
2019-03-29T15:19:43.124Z,7.40
2019-03-29T15:22:12.357Z,6.95
2019-03-29T15:24:41.494Z,6.85
2019-03-29T15:27:10.700Z,7.45
2019-03-29T15:29:39.851Z,6.75
2019-03-29T15:32:09.176Z,6.58
2019-03-29T15:34:39.299Z,6.53
2019-03-29T15:37:10.064Z,6.55
2019-03-29T15:39:39.645Z,6.45
2019-03-29T15:42:09.204Z,6.55
2019-03-29T15:44:38.421Z,7.37
2019-03-29T15:47:07.561Z,7.40
2019-03-29T15:49:36.709Z,8.10
2019-03-29T15:52:05.938Z,7.90
2019-03-29T15:54:35.094Z,8.23
2019-03-29T15:57:04.404Z,7.87
2019-03-29T15:59:33.601Z,7.60
2019-03-29T16:02:02.831Z,7.80
2019-03-29T16:04:31.995Z,8.33
2019-03-29T16:07:01.184Z,7.67
2019-03-29T16:09:30.502Z,8.43
2019-03-29T16:11:59.696Z,7.57
2019-03-29T16:14:28.961Z,9.55
2019-03-29T16:16:58.110Z,9.60
2019-03-29T16:19:27.407Z,10.30
2019-03-29T16:21:56.599Z,9.75
2019-03-29T16:24:25.750Z,10.20
2019-03-29T16:26:54.917Z,9.30
2019-03-29T16:29:24.567Z,9.33
2019-03-29T16:31:54.322Z,9.93
2019-03-29T16:34:23.487Z,9.48
2019-03-29T16:36:52.825Z,9.68
2019-03-29T16:39:22.336Z,10.58
2019-03-29T16:41:51.515Z,11.00
2019-03-29T16:44:20.768Z,11.33
2019-03-29T16:46:49.884Z,15.15
2019-03-29T16:49:19.062Z,13.80
2019-03-29T16:51:48.272Z,14.20
2019-03-29T16:54:17.504Z,8.95
2019-03-29T16:56:46.732Z,13.78
2019-03-29T16:59:15.960Z,14.07
2019-03-29T17:01:45.173Z,13.67
2019-03-29T17:04:14.382Z,18.82
2019-03-29T17:06:43.730Z,11.28
2019-03-29T17:09:12.927Z,13.18
2019-03-29T17:11:42.074Z,14.90
2019-03-29T17:14:11.266Z,15.23
2019-03-29T17:16:40.474Z,13.55
2019-03-29T17:19:09.620Z,17.37
2019-03-29T17:21:38.861Z,14.63
2019-03-29T17:24:08.037Z,16.40
2019-03-29T17:26:37.346Z,14.47
2019-03-29T17:29:06.473Z,15.08
2019-03-29T17:31:35.828Z,15.53
2019-03-29T17:34:05.047Z,17.23
2019-03-29T17:36:34.279Z,17.30
2019-03-29T17:39:04.045Z,18.92
2019-03-29T17:41:33.293Z,17.12
2019-03-29T17:44:02.632Z,17.37
2019-03-29T17:46:32.149Z,18.02
2019-03-29T17:49:01.392Z,18.20
2019-03-29T17:51:30.613Z,17.65
2019-03-29T17:53:59.818Z,18.45
2019-03-29T17:56:29.038Z,16.62
2019-03-29T17:58:58.292Z,17.02
2019-03-29T18:01:27.503Z,15.78
2019-03-29T18:03:56.634Z,16.97
2019-03-29T18:06:25.833Z,16.85
2019-03-29T18:08:55.356Z,16.93
2019-03-29T18:11:24.572Z,17.57
2019-03-29T18:13:54.063Z,18.90
2019-03-29T18:16:30.594Z,20.50
2019-03-29T18:18:54.623Z,28.05
2019-03-29T18:21:23.874Z,19.93
2019-03-29T18:23:53.069Z,19.42
2019-03-29T18:26:22.533Z,20.05
2019-03-29T18:28:51.759Z,20.55
2019-03-29T18:31:21.199Z,20.62
2019-03-29T18:33:50.415Z,18.37
2019-03-29T18:36:19.631Z,19.37
2019-03-29T18:38:49.509Z,28.83
2019-03-29T18:41:18.723Z,19.02
2019-03-29T18:43:47.991Z,20.47
2019-03-29T18:46:17.775Z,20.82
2019-03-29T18:48:47.083Z,19.60
2019-03-29T18:51:16.364Z,20.97
2019-03-29T18:53:45.616Z,20.43
2019-03-29T18:56:14.889Z,25.50
2019-03-29T18:58:44.083Z,21.25
2019-03-29T19:01:13.239Z,21.02
2019-03-29T19:03:42.452Z,21.87
2019-03-29T19:06:11.726Z,22.98
2019-03-29T19:08:40.861Z,24.50
2019-03-29T19:11:10.106Z,26.65
2019-03-29T19:13:39.268Z,28.25
2019-03-29T19:16:08.656Z,24.55
2019-03-29T19:18:37.884Z,23.65
2019-03-29T19:21:07.245Z,23.02
2019-03-29T19:23:36.395Z,23.22
2019-03-29T19:26:05.965Z,22.48
2019-03-29T19:28:35.203Z,21.85
2019-03-29T19:31:04.475Z,21.23
2019-03-29T19:33:36.725Z,22.13
2019-03-29T19:36:06.251Z,21.50
2019-03-29T19:38:36.802Z,42.30
2019-03-29T19:41:06.033Z,20.52
2019-03-29T19:43:35.215Z,23.07
2019-03-29T19:46:04.575Z,22.50
2019-03-29T19:48:33.737Z,22.33
2019-03-29T19:51:02.896Z,22.10
2019-03-29T19:53:34.315Z,21.65
2019-03-29T19:56:02.908Z,25.40
2019-03-29T19:58:32.254Z,21.45
2019-03-29T20:01:01.944Z,21.87
2019-03-29T20:03:31.125Z,20.48
2019-03-29T20:06:00.314Z,20.25
2019-03-29T20:08:29.494Z,19.87
2019-03-29T20:10:58.676Z,19.15
2019-03-29T20:13:27.854Z,27.48
2019-03-29T20:15:57.145Z,18.95
2019-03-29T20:18:26.338Z,20.35
2019-03-29T20:20:55.560Z,19.50
2019-03-29T20:23:24.784Z,28.02
2019-03-29T20:25:53.979Z,19.40
2019-03-29T20:28:23.117Z,20.17
2019-03-29T20:30:52.328Z,18.62
2019-03-29T20:33:21.612Z,18.48
2019-03-29T20:35:50.774Z,17.70
2019-03-29T20:38:20.089Z,17.87
2019-03-29T20:40:49.242Z,17.10
2019-03-29T20:43:18.396Z,18.23
2019-03-29T20:45:47.615Z,18.95
2019-03-29T20:48:16.809Z,18.62
2019-03-29T20:50:46.031Z,18.48
2019-03-29T20:53:15.206Z,18.77
2019-03-29T20:55:44.467Z,17.62
2019-03-29T20:58:13.642Z,16.40
2019-03-29T21:00:43.582Z,17.10
2019-03-29T21:03:12.884Z,16.23
2019-03-29T21:05:42.118Z,16.23
2019-03-29T21:08:11.367Z,15.68
2019-03-29T21:10:54.604Z,16.02
2019-03-29T21:13:11.673Z,15.88
2019-03-29T21:15:40.970Z,16.05
2019-03-29T21:18:10.216Z,16.57
2019-03-29T21:20:39.376Z,16.00
2019-03-29T21:23:08.632Z,16.82
2019-03-29T21:25:37.831Z,16.63
2019-03-29T21:28:07.050Z,20.25
2019-03-29T21:30:36.202Z,18.05
2019-03-29T21:33:05.518Z,18.55
2019-03-29T21:35:34.719Z,18.83
2019-03-29T21:38:03.928Z,19.98
2019-03-29T21:40:33.190Z,20.88
2019-03-29T21:43:02.403Z,20.55
2019-03-29T21:45:31.582Z,21.57
2019-03-29T21:48:08.811Z,23.15
2019-03-29T21:50:33.472Z,23.45
2019-03-29T21:53:02.639Z,24.47
2019-03-29T21:55:31.861Z,23.40
2019-03-29T21:58:01.063Z,24.57
2019-03-29T22:00:30.232Z,27.37
2019-03-29T22:02:59.380Z,23.73
2019-03-29T22:05:28.762Z,23.65
2019-03-29T22:07:57.976Z,24.80
2019-03-29T22:10:27.183Z,24.53
2019-03-29T22:12:56.358Z,24.00
2019-03-29T22:15:26.456Z,23.07
2019-03-29T22:17:55.681Z,21.27
2019-03-29T22:20:24.857Z,26.17
2019-03-29T22:22:54.161Z,24.10
2019-03-29T22:25:23.328Z,23.47
2019-03-29T22:27:52.550Z,22.00
2019-03-29T22:30:21.809Z,22.25
2019-03-29T22:32:51.024Z,28.55
2019-03-29T22:35:20.391Z,20.35
2019-03-29T22:37:49.693Z,27.32
2019-03-29T22:40:18.877Z,23.45
2019-03-29T22:42:48.065Z,22.70
2019-03-29T22:45:17.216Z,25.08
2019-03-29T22:47:46.470Z,26.57
2019-03-29T22:50:15.689Z,24.73
2019-03-29T22:52:44.859Z,26.02
2019-03-29T22:55:14.074Z,26.75
2019-03-29T22:57:43.253Z,24.98
2019-03-29T23:00:19.502Z,24.50
2019-03-29T23:02:48.621Z,25.92
2019-03-29T23:05:17.816Z,24.60
2019-03-29T23:07:47.249Z,25.52
2019-03-29T23:10:16.420Z,23.45
2019-03-29T23:12:45.567Z,24.12
2019-03-29T23:15:14.743Z,23.87
2019-03-29T23:17:43.908Z,23.00
2019-03-29T23:20:13.320Z,28.13
2019-03-29T23:22:42.886Z,22.27
2019-03-29T23:25:12.125Z,21.70
2019-03-29T23:27:41.438Z,19.20
2019-03-29T23:30:10.912Z,19.95
2019-03-29T23:32:40.096Z,19.75
2019-03-29T23:35:09.326Z,19.80
2019-03-29T23:37:39.184Z,18.75
2019-03-29T23:40:08.375Z,19.30
2019-03-29T23:42:38.201Z,19.83
2019-03-29T23:45:07.372Z,19.23
2019-03-29T23:47:37.091Z,19.45
2019-03-29T23:50:06.304Z,18.98
2019-03-29T23:52:35.530Z,19.20
2019-03-29T23:55:06.122Z,19.35
2019-03-29T23:57:35.367Z,18.63
